createdAt,value
2023-03-01T00:01:51.542Z,93.80
2023-03-01T00:04:20.893Z,93.80
2023-03-01T00:06:50.519Z,93.80
2023-03-01T00:09:22.358Z,93.80
2023-03-01T00:11:49.550Z,93.80
2023-03-01T00:14:21.754Z,93.80
2023-03-01T00:16:48.916Z,93.80
2023-03-01T00:19:18.851Z,93.70
2023-03-01T00:21:48.567Z,93.80
2023-03-01T00:24:16.039Z,93.80
2023-03-01T00:26:48.005Z,93.80
2023-03-01T00:29:15.129Z,93.80
2023-03-01T00:31:44.442Z,93.80
2023-03-01T00:34:11.619Z,93.80
2023-03-01T00:36:40.983Z,93.80
2023-03-01T00:39:15.556Z,93.80
2023-03-01T00:41:47.676Z,93.90
2023-03-01T00:44:14.866Z,93.80
2023-03-01T00:46:42.099Z,93.80
2023-03-01T00:49:09.245Z,93.80
2023-03-01T00:51:36.484Z,93.80
2023-03-01T00:54:04.490Z,93.80
2023-03-01T00:56:32.918Z,93.80
2023-03-01T00:59:03.425Z,93.80
2023-03-01T01:01:32.754Z,93.80
2023-03-01T01:04:17.795Z,93.80
2023-03-01T01:06:47.246Z,93.80
2023-03-01T01:09:18.410Z,93.80
2023-03-01T01:11:50.716Z,93.80
2023-03-01T01:14:20.466Z,93.80
2023-03-01T01:16:50.011Z,93.80
2023-03-01T01:19:17.342Z,93.80
2023-03-01T01:21:47.736Z,93.80
2023-03-01T01:24:17.687Z,93.80
2023-03-01T01:26:47.510Z,93.80
2023-03-01T01:29:15.244Z,93.80
2023-03-01T01:31:46.583Z,93.80
2023-03-01T01:34:19.397Z,93.80
2023-03-01T01:36:56.303Z,93.90
2023-03-01T01:39:25.640Z,93.80
2023-03-01T01:41:52.806Z,93.80
2023-03-01T01:44:26.403Z,93.90
2023-03-01T01:47:30.851Z,93.90
2023-03-01T01:49:58.506Z,93.80
2023-03-01T01:52:34.730Z,93.80
2023-03-01T01:55:09.486Z,93.90
2023-03-01T01:57:59.470Z,93.90
2023-03-01T02:00:31.600Z,93.90
2023-03-01T02:03:06.551Z,93.90
2023-03-01T02:06:08.082Z,93.80
2023-03-01T02:08:38.769Z,93.80
2023-03-01T02:11:12.277Z,93.80
2023-03-01T02:13:42.512Z,93.80
2023-03-01T02:16:11.752Z,93.80
2023-03-01T02:18:40.934Z,93.90
2023-03-01T02:21:36.028Z,93.90
2023-03-01T02:24:30.083Z,94.10
2023-03-01T02:27:00.192Z,94.00
2023-03-01T02:29:29.303Z,94.00
2023-03-01T02:31:59.583Z,94.00
2023-03-01T02:34:27.958Z,93.90
2023-03-01T02:37:05.542Z,93.90
2023-03-01T02:39:47.158Z,93.90
2023-03-01T02:42:18.014Z,93.90
2023-03-01T02:44:47.614Z,93.80
2023-03-01T02:47:14.712Z,93.80
2023-03-01T02:49:41.814Z,93.80
2023-03-01T02:52:33.672Z,93.80
2023-03-01T02:55:15.126Z,93.80
2023-03-01T02:57:45.648Z,93.80
2023-03-01T03:00:22.635Z,93.70
2023-03-01T03:02:53.639Z,93.70
2023-03-01T03:05:31.893Z,93.80
2023-03-01T03:08:03.655Z,93.80
2023-03-01T03:10:36.333Z,93.70
2023-03-01T03:13:11.839Z,93.70
2023-03-01T03:15:44.783Z,93.70
2023-03-01T03:18:15.838Z,93.70
2023-03-01T03:20:46.295Z,93.70
2023-03-01T03:23:13.619Z,93.80
2023-03-01T03:25:40.754Z,93.90
2023-03-01T03:28:12.871Z,93.80
2023-03-01T03:30:42.963Z,93.80
2023-03-01T03:33:13.909Z,93.80
2023-03-01T03:35:46.708Z,93.70
2023-03-01T03:38:23.109Z,93.80
2023-03-01T03:41:02.108Z,93.80
2023-03-01T03:43:29.912Z,93.80
2023-03-01T03:46:06.710Z,93.80
2023-03-01T03:48:41.858Z,93.80
2023-03-01T03:51:15.371Z,93.80
2023-03-01T03:53:42.847Z,93.80
2023-03-01T03:56:13.047Z,93.80
2023-03-01T03:58:40.258Z,93.70
2023-03-01T04:01:07.480Z,93.70
2023-03-01T04:03:36.165Z,93.80
2023-03-01T04:06:07.022Z,93.80
2023-03-01T04:08:34.270Z,93.80
2023-03-01T04:11:25.231Z,93.80
2023-03-01T04:14:01.284Z,93.70
2023-03-01T04:16:31.381Z,93.70
2023-03-01T04:19:01.864Z,93.80
2023-03-01T04:21:31.152Z,93.90
2023-03-01T04:23:58.329Z,93.80
2023-03-01T04:26:28.032Z,93.90
2023-03-01T04:28:57.689Z,94.10
2023-03-01T04:31:26.956Z,94.10
2023-03-01T04:33:57.302Z,94.10
2023-03-01T04:36:26.829Z,94.00
2023-03-01T04:38:56.829Z,94.20
2023-03-01T04:41:25.555Z,94.10
2023-03-01T04:43:52.951Z,94.00
2023-03-01T04:46:21.763Z,94.00
2023-03-01T04:48:51.479Z,94.00
2023-03-01T04:51:19.391Z,93.90
2023-03-01T04:53:48.797Z,93.90
2023-03-01T04:56:16.902Z,94.00
2023-03-01T04:58:44.299Z,94.00
2023-03-01T05:01:19.901Z,93.80
2023-03-01T05:03:52.155Z,94.00
2023-03-01T05:06:21.047Z,94.10
2023-03-01T05:08:48.283Z,94.00
2023-03-01T05:11:15.479Z,93.90
2023-03-01T05:13:47.045Z,93.90
2023-03-01T05:16:17.957Z,93.90
2023-03-01T05:18:47.583Z,93.90
2023-03-01T05:21:18.470Z,93.90
2023-03-01T05:23:48.788Z,93.90
2023-03-01T05:26:28.278Z,94.00
2023-03-01T05:29:10.779Z,94.20
2023-03-01T05:31:39.123Z,93.90
2023-03-01T05:34:08.269Z,93.90
2023-03-01T05:36:40.283Z,93.80
2023-03-01T05:39:09.679Z,93.80
2023-03-01T05:41:39.052Z,93.80
2023-03-01T05:44:08.045Z,93.80
2023-03-01T05:46:37.433Z,93.80
2023-03-01T05:49:06.687Z,93.80
2023-03-01T05:51:36.174Z,93.90
2023-03-01T05:54:03.488Z,93.80
2023-03-01T05:56:30.894Z,93.90
2023-03-01T05:59:00.626Z,93.90
2023-03-01T06:01:30.377Z,93.90
2023-03-01T06:03:57.798Z,93.90
2023-03-01T06:06:26.567Z,94.00
2023-03-01T06:08:57.094Z,94.30
2023-03-01T06:11:26.855Z,94.00
2023-03-01T06:13:54.079Z,94.00
2023-03-01T06:16:21.192Z,94.00
2023-03-01T06:18:50.395Z,94.10
2023-03-01T06:21:22.541Z,94.00
2023-03-01T06:23:49.706Z,93.90
2023-03-01T06:26:16.906Z,93.90
2023-03-01T06:28:47.144Z,93.90
2023-03-01T06:31:18.950Z,93.80
2023-03-01T06:33:50.810Z,93.90
2023-03-01T06:36:22.108Z,93.90
2023-03-01T06:38:51.363Z,93.90
2023-03-01T06:41:18.609Z,94.10
2023-03-01T06:43:50.317Z,94.00
2023-03-01T06:46:20.010Z,94.00
2023-03-01T06:48:50.001Z,93.90
2023-03-01T06:51:18.035Z,93.90
2023-03-01T06:53:47.946Z,93.90
2023-03-01T06:56:17.117Z,94.00
2023-03-01T06:58:44.306Z,93.90
2023-03-01T07:01:11.477Z,94.10
2023-03-01T07:03:38.647Z,94.10
2023-03-01T07:06:06.059Z,94.10
2023-03-01T07:08:33.209Z,94.50
2023-03-01T07:11:02.870Z,94.20
2023-03-01T07:13:32.374Z,94.30
2023-03-01T07:15:59.556Z,94.30
2023-03-01T07:18:31.298Z,94.10
2023-03-01T07:21:10.588Z,94.50
2023-03-01T07:23:37.772Z,94.30
2023-03-01T07:26:09.333Z,94.30
2023-03-01T07:28:40.102Z,94.30
2023-03-01T07:31:07.664Z,94.30
2023-03-01T07:33:37.042Z,94.40
2023-03-01T07:36:05.391Z,95.10
2023-03-01T07:38:37.273Z,94.50
2023-03-01T07:41:07.548Z,94.60
2023-03-01T07:43:35.063Z,94.70
2023-03-01T07:46:05.404Z,95.00
2023-03-01T07:48:35.731Z,95.70
2023-03-01T07:51:08.788Z,95.00
2023-03-01T07:53:37.090Z,94.90
2023-03-01T07:56:12.659Z,95.10
2023-03-01T07:58:47.163Z,94.90
2023-03-01T08:01:20.888Z,94.80
2023-03-01T08:03:50.653Z,94.90
2023-03-01T08:06:18.509Z,95.20
2023-03-01T08:08:46.678Z,95.20
2023-03-01T08:11:17.946Z,95.00
2023-03-01T08:13:51.363Z,95.10
2023-03-01T08:16:24.758Z,95.10
2023-03-01T08:18:51.946Z,95.10
2023-03-01T08:21:21.843Z,95.10
2023-03-01T08:23:53.278Z,95.20
2023-03-01T08:26:23.143Z,95.80
2023-03-01T08:28:51.227Z,95.50
2023-03-01T08:31:19.880Z,95.30
2023-03-01T08:33:56.392Z,95.50
2023-03-01T08:36:32.665Z,95.50
2023-03-01T08:39:02.262Z,95.50
2023-03-01T08:41:29.663Z,95.80
2023-03-01T08:44:00.017Z,95.40
2023-03-01T08:46:41.320Z,95.40
2023-03-01T08:49:17.866Z,95.80
2023-03-01T08:51:48.409Z,95.90
2023-03-01T08:54:21.096Z,96.30
2023-03-01T08:56:52.833Z,95.80
2023-03-01T08:59:25.826Z,96.00
2023-03-01T09:01:58.121Z,96.20
2023-03-01T09:04:25.466Z,96.30
2023-03-01T09:06:54.920Z,96.10
2023-03-01T09:09:22.262Z,96.20
2023-03-01T09:11:51.150Z,96.10
2023-03-01T09:14:18.497Z,96.30
2023-03-01T09:16:50.439Z,96.20
2023-03-01T09:19:19.802Z,96.20
2023-03-01T09:21:53.155Z,96.20
2023-03-01T09:24:25.471Z,96.50
2023-03-01T09:26:56.816Z,96.20
2023-03-01T09:29:27.486Z,96.30
2023-03-01T09:31:56.262Z,96.30
2023-03-01T09:34:24.467Z,96.40
2023-03-01T09:36:52.206Z,96.40
2023-03-01T09:39:22.222Z,96.30
2023-03-01T09:42:05.703Z,96.60
2023-03-01T09:44:41.665Z,96.50
2023-03-01T09:47:21.121Z,96.70
2023-03-01T09:50:18.954Z,96.60
2023-03-01T09:53:17.279Z,96.60
2023-03-01T09:55:53.036Z,96.80
2023-03-01T09:58:28.554Z,96.60
2023-03-01T10:01:00.578Z,96.70
2023-03-01T10:03:30.044Z,96.70
2023-03-01T10:05:57.200Z,96.80
2023-03-01T10:08:37.490Z,96.70
2023-03-01T10:11:13.855Z,96.80
2023-03-01T10:13:54.666Z,96.80
2023-03-01T10:16:44.115Z,96.90
2023-03-01T10:19:24.207Z,96.80
2023-03-01T10:21:52.670Z,96.90
2023-03-01T10:24:23.413Z,96.80
2023-03-01T10:27:05.418Z,96.90
2023-03-01T10:29:39.358Z,97.00
2023-03-01T10:32:09.340Z,96.90
2023-03-01T10:34:39.363Z,97.00
2023-03-01T10:37:26.891Z,96.80
2023-03-01T10:40:06.970Z,96.80
2023-03-01T10:42:39.499Z,96.40
2023-03-01T10:45:25.923Z,96.70
2023-03-01T10:48:06.350Z,96.70
2023-03-01T10:50:33.817Z,96.60
2023-03-01T10:53:05.580Z,96.70
2023-03-01T10:55:41.796Z,96.70
2023-03-01T10:58:08.831Z,96.80
2023-03-01T11:00:48.326Z,96.80
2023-03-01T11:03:23.223Z,96.90
2023-03-01T11:06:12.582Z,97.10
2023-03-01T11:08:47.322Z,97.10
2023-03-01T11:11:34.598Z,97.00
2023-03-01T11:14:25.914Z,96.70
2023-03-01T11:17:16.251Z,96.70
2023-03-01T11:19:48.842Z,96.40
2023-03-01T11:22:23.025Z,96.50
2023-03-01T11:25:08.937Z,96.60
2023-03-01T11:27:45.590Z,96.70
2023-03-01T11:30:24.302Z,97.30
2023-03-01T11:33:06.058Z,96.90
2023-03-01T11:35:39.099Z,96.50
2023-03-01T11:38:11.655Z,97.20
2023-03-01T11:40:43.025Z,96.90
2023-03-01T11:43:31.979Z,96.50
2023-03-01T11:46:29.522Z,95.60
2023-03-01T11:49:08.659Z,96.50
2023-03-01T11:52:01.290Z,96.40
2023-03-01T11:54:52.363Z,95.90
2023-03-01T11:57:37.767Z,96.50
2023-03-01T12:00:22.157Z,96.60
2023-03-01T12:03:09.745Z,96.60
2023-03-01T12:05:54.129Z,96.70
2023-03-01T12:08:43.792Z,96.80
2023-03-01T12:11:50.412Z,96.60
2023-03-01T12:14:46.755Z,96.40
2023-03-01T12:17:37.325Z,96.50
2023-03-01T12:20:23.016Z,97.00
2023-03-01T12:23:20.322Z,97.20
2023-03-01T12:26:02.205Z,96.10
2023-03-01T12:28:53.094Z,96.00
2023-03-01T12:31:26.711Z,96.20
2023-03-01T12:34:09.164Z,95.90
2023-03-01T12:36:47.321Z,96.60
2023-03-01T12:39:40.801Z,96.90
2023-03-01T12:42:48.451Z,96.50
2023-03-01T12:45:21.663Z,96.40
2023-03-01T12:48:19.622Z,96.10
2023-03-01T12:50:55.080Z,96.80
2023-03-01T12:53:36.812Z,96.40
2023-03-01T12:56:07.695Z,96.30
2023-03-01T12:59:05.372Z,96.10
2023-03-01T13:02:12.407Z,96.20
2023-03-01T13:04:58.193Z,96.20
2023-03-01T13:07:56.244Z,96.40
2023-03-01T13:10:33.884Z,96.40
2023-03-01T13:13:21.204Z,96.20
2023-03-01T13:15:52.287Z,96.50
2023-03-01T13:18:26.602Z,96.60
2023-03-01T13:20:58.240Z,96.00
2023-03-01T13:23:28.522Z,96.30
2023-03-01T13:26:01.097Z,96.20
2023-03-01T13:28:47.105Z,95.70
2023-03-01T13:31:17.061Z,95.40
2023-03-01T13:33:56.842Z,95.90
2023-03-01T13:36:30.791Z,96.00
2023-03-01T13:39:06.143Z,95.30
2023-03-01T13:41:44.572Z,95.60
2023-03-01T13:44:33.392Z,95.20
2023-03-01T13:47:18.521Z,95.60
2023-03-01T13:49:51.524Z,95.80
2023-03-01T13:52:40.542Z,95.90
2023-03-01T13:55:17.780Z,96.00
2023-03-01T13:57:55.225Z,96.20
2023-03-01T14:00:41.595Z,96.00
2023-03-01T14:03:11.802Z,96.20
2023-03-01T14:05:43.472Z,96.30
2023-03-01T14:08:24.924Z,96.60
2023-03-01T14:11:19.123Z,96.20
2023-03-01T14:14:09.267Z,96.00
2023-03-01T14:17:00.775Z,96.10
2023-03-01T14:19:34.742Z,95.80
2023-03-01T14:22:28.238Z,96.40
2023-03-01T14:25:04.433Z,96.70
2023-03-01T14:27:37.232Z,96.00
2023-03-01T14:30:16.353Z,95.30
2023-03-01T14:32:57.261Z,96.00
2023-03-01T14:35:32.507Z,96.50
2023-03-01T14:38:02.015Z,96.30
2023-03-01T14:40:43.428Z,95.90
2023-03-01T14:43:21.379Z,96.10
2023-03-01T14:45:54.269Z,96.00
2023-03-01T14:48:22.167Z,96.50
2023-03-01T14:50:52.371Z,96.30
2023-03-01T14:53:22.350Z,96.00
2023-03-01T14:55:54.634Z,96.00
2023-03-01T14:58:29.863Z,96.10
2023-03-01T15:01:02.796Z,95.90
2023-03-01T15:03:38.322Z,95.30
2023-03-01T15:06:08.218Z,95.00
2023-03-01T15:08:43.168Z,95.70
2023-03-01T15:11:33.001Z,94.40
2023-03-01T15:14:02.020Z,95.10
2023-03-01T15:16:42.316Z,95.20
2023-03-01T15:19:19.069Z,95.00
2023-03-01T15:21:50.944Z,95.90
2023-03-01T15:24:23.790Z,96.10
2023-03-01T15:27:07.974Z,96.00
2023-03-01T15:29:41.548Z,95.90
2023-03-01T15:32:37.115Z,96.00
2023-03-01T15:35:35.729Z,94.60
2023-03-01T15:38:05.186Z,95.70
2023-03-01T15:40:32.809Z,95.90
2023-03-01T15:43:01.550Z,95.80
2023-03-01T15:45:35.167Z,95.40
2023-03-01T15:48:05.352Z,95.70
2023-03-01T15:50:41.123Z,94.90
2023-03-01T15:53:16.517Z,95.10
2023-03-01T15:55:50.684Z,95.10
2023-03-01T15:58:25.873Z,95.40
2023-03-01T16:01:02.075Z,94.70
2023-03-01T16:03:32.875Z,95.50
2023-03-01T16:06:02.540Z,95.50
2023-03-01T16:08:30.233Z,95.70
2023-03-01T16:10:57.421Z,95.80
2023-03-01T16:13:28.403Z,95.90
2023-03-01T16:16:01.834Z,95.80
2023-03-01T16:18:28.990Z,95.50
2023-03-01T16:20:58.570Z,95.90
2023-03-01T16:23:26.052Z,95.30
2023-03-01T16:25:53.203Z,94.70
2023-03-01T16:28:20.408Z,94.70
2023-03-01T16:30:52.392Z,95.30
2023-03-01T16:33:28.561Z,95.60
2023-03-01T16:36:01.177Z,95.60
2023-03-01T16:38:28.695Z,95.80
2023-03-01T16:41:00.394Z,95.80
2023-03-01T16:43:30.222Z,95.90
2023-03-01T16:45:57.430Z,95.60
2023-03-01T16:48:27.164Z,95.90
2023-03-01T16:51:02.613Z,95.80
2023-03-01T16:53:30.130Z,95.70
2023-03-01T16:56:01.143Z,95.70
2023-03-01T16:58:31.307Z,95.60
2023-03-01T17:01:16.749Z,95.70
2023-03-01T17:03:45.175Z,95.20
2023-03-01T17:06:15.103Z,95.40
2023-03-01T17:08:42.567Z,95.60
2023-03-01T17:11:11.715Z,95.30
2023-03-01T17:13:39.794Z,95.50
2023-03-01T17:16:08.714Z,95.40
2023-03-01T17:18:39.210Z,95.10
2023-03-01T17:21:07.323Z,95.00
2023-03-01T17:23:36.400Z,95.20
2023-03-01T17:26:03.861Z,95.40
2023-03-01T17:28:36.029Z,95.10
2023-03-01T17:31:08.001Z,95.20
2023-03-01T17:33:38.533Z,95.00
2023-03-01T17:36:08.483Z,95.00
2023-03-01T17:38:38.210Z,95.00
2023-03-01T17:41:05.396Z,94.80
2023-03-01T17:43:34.423Z,95.00
2023-03-01T17:46:04.531Z,95.00
2023-03-01T17:48:36.836Z,95.00
2023-03-01T17:51:13.445Z,95.10
2023-03-01T17:53:40.731Z,94.90
2023-03-01T17:56:11.481Z,94.80
2023-03-01T17:58:43.693Z,95.00
2023-03-01T18:01:21.244Z,94.90
2023-03-01T18:03:50.752Z,94.90
2023-03-01T18:06:20.216Z,94.90
2023-03-01T18:08:53.809Z,94.90
2023-03-01T18:11:25.206Z,94.60
2023-03-01T18:13:55.797Z,94.80
2023-03-01T18:16:23.504Z,94.90
2023-03-01T18:18:58.507Z,94.80
2023-03-01T18:21:28.358Z,94.50
2023-03-01T18:23:55.685Z,94.70
2023-03-01T18:26:25.105Z,94.80
2023-03-01T18:28:57.851Z,94.90
2023-03-01T18:31:33.236Z,94.90
2023-03-01T18:34:03.020Z,94.90
2023-03-01T18:36:35.104Z,94.90
2023-03-01T18:39:04.111Z,94.60
2023-03-01T18:41:33.214Z,94.80
2023-03-01T18:44:04.773Z,94.80
2023-03-01T18:46:35.979Z,94.90
2023-03-01T18:49:04.464Z,94.80
2023-03-01T18:51:31.960Z,94.90
2023-03-01T18:54:01.660Z,94.90
2023-03-01T18:56:33.324Z,94.90
2023-03-01T18:59:02.358Z,94.80
2023-03-01T19:01:34.117Z,94.80
2023-03-01T19:04:06.551Z,94.80
2023-03-01T19:06:35.455Z,94.80
2023-03-01T19:09:06.965Z,94.80
2023-03-01T19:11:35.700Z,94.90
2023-03-01T19:14:08.626Z,94.90
2023-03-01T19:16:36.038Z,94.90
2023-03-01T19:19:08.417Z,94.80
2023-03-01T19:21:36.051Z,94.80
2023-03-01T19:24:06.137Z,94.80
2023-03-01T19:26:34.087Z,94.70
2023-03-01T19:29:06.273Z,94.70
2023-03-01T19:31:33.522Z,94.80
2023-03-01T19:34:11.119Z,94.70
2023-03-01T19:36:44.484Z,94.70
2023-03-01T19:39:13.727Z,94.60
2023-03-01T19:41:44.233Z,94.70
2023-03-01T19:44:16.039Z,94.70
2023-03-01T19:46:43.234Z,94.70
2023-03-01T19:49:13.041Z,94.60
2023-03-01T19:51:40.179Z,94.60
2023-03-01T19:54:11.960Z,94.60
2023-03-01T19:56:40.912Z,94.60
2023-03-01T19:59:10.306Z,94.60
2023-03-01T20:01:42.430Z,94.60
2023-03-01T20:04:12.956Z,94.60
2023-03-01T20:06:42.629Z,94.60
2023-03-01T20:09:21.371Z,94.50
2023-03-01T20:11:49.787Z,94.50
2023-03-01T20:14:21.699Z,94.50
2023-03-01T20:16:55.175Z,94.50
2023-03-01T20:19:22.453Z,94.50
2023-03-01T20:21:49.887Z,94.50
2023-03-01T20:24:19.096Z,94.40
2023-03-01T20:26:48.756Z,94.40
2023-03-01T20:29:20.739Z,94.30
2023-03-01T20:31:50.481Z,94.40
2023-03-01T20:34:17.696Z,94.30
2023-03-01T20:36:56.861Z,94.40
2023-03-01T20:39:24.036Z,94.30
2023-03-01T20:41:51.142Z,94.30
2023-03-01T20:44:20.648Z,94.30
2023-03-01T20:46:50.777Z,94.30
2023-03-01T20:49:21.693Z,94.40
2023-03-01T20:51:51.377Z,94.30
2023-03-01T20:54:18.619Z,94.30
2023-03-01T20:56:48.327Z,94.30
2023-03-01T20:59:15.988Z,94.40
2023-03-01T21:01:43.195Z,94.30
2023-03-01T21:04:13.130Z,94.30
2023-03-01T21:06:44.638Z,94.40
2023-03-01T21:09:12.067Z,94.30
2023-03-01T21:11:43.661Z,94.40
2023-03-01T21:14:13.179Z,94.40
2023-03-01T21:16:40.388Z,94.30
2023-03-01T21:19:08.929Z,94.30
2023-03-01T21:21:41.148Z,94.30
2023-03-01T21:24:11.729Z,94.30
2023-03-01T21:26:43.644Z,94.30
2023-03-01T21:29:10.812Z,94.30
2023-03-01T21:31:38.129Z,94.20
2023-03-01T21:34:09.021Z,94.10
2023-03-01T21:36:38.494Z,94.10
2023-03-01T21:39:06.770Z,94.10
2023-03-01T21:41:39.032Z,94.10
2023-03-01T21:44:07.397Z,94.10
2023-03-01T21:46:39.509Z,94.10
2023-03-01T21:49:10.511Z,94.00
2023-03-01T21:51:42.452Z,94.10
2023-03-01T21:54:14.814Z,94.00
2023-03-01T21:56:44.682Z,94.00
2023-03-01T21:59:22.179Z,94.00
2023-03-01T22:01:54.614Z,94.00
2023-03-01T22:04:24.788Z,94.00
2023-03-01T22:06:54.553Z,93.90
2023-03-01T22:09:24.291Z,93.90
2023-03-01T22:12:02.566Z,93.90
2023-03-01T22:14:32.607Z,93.90
2023-03-01T22:16:59.758Z,93.90
2023-03-01T22:19:32.147Z,93.90
2023-03-01T22:22:03.949Z,93.80
2023-03-01T22:24:35.924Z,93.90
2023-03-01T22:27:06.097Z,93.80
2023-03-01T22:29:33.206Z,93.80
2023-03-01T22:32:05.120Z,93.90
2023-03-01T22:34:35.858Z,93.90
2023-03-01T22:37:06.098Z,93.90
2023-03-01T22:39:33.198Z,94.00
2023-03-01T22:42:00.291Z,93.80
2023-03-01T22:44:29.704Z,93.90
2023-03-01T22:47:01.678Z,93.90
2023-03-01T22:49:30.884Z,93.80
2023-03-01T22:52:01.280Z,93.80
2023-03-01T22:54:28.576Z,93.80
2023-03-01T22:56:55.915Z,93.80
2023-03-01T22:59:25.325Z,93.80
2023-03-01T23:01:54.699Z,93.80
2023-03-01T23:04:26.704Z,93.80
2023-03-01T23:06:56.234Z,93.80
2023-03-01T23:09:33.157Z,93.80
2023-03-01T23:12:02.430Z,93.80
2023-03-01T23:14:33.380Z,93.80
2023-03-01T23:17:01.661Z,93.80
2023-03-01T23:19:32.971Z,93.80
2023-03-01T23:22:02.281Z,93.80
2023-03-01T23:24:32.314Z,93.70
2023-03-01T23:27:01.431Z,94.00
2023-03-01T23:29:30.706Z,93.70
2023-03-01T23:31:58.640Z,93.70
2023-03-01T23:34:26.767Z,93.70
2023-03-01T23:36:57.942Z,93.60
2023-03-01T23:39:30.034Z,93.60
2023-03-01T23:41:57.362Z,93.70
2023-03-01T23:44:27.409Z,93.60
2023-03-01T23:46:57.069Z,93.70
2023-03-01T23:49:28.846Z,93.60
2023-03-01T23:51:56.049Z,93.60
2023-03-01T23:54:28.413Z,93.60
2023-03-01T23:56:58.048Z,93.60
2023-03-01T23:59:25.415Z,93.60
